createdAt,value
2023-05-05T00:02:26.900Z,57.36
2023-05-05T00:04:54.647Z,57.60
2023-05-05T00:07:22.258Z,57.57
2023-05-05T00:09:49.854Z,57.51
2023-05-05T00:12:17.500Z,57.72
2023-05-05T00:14:45.159Z,57.83
2023-05-05T00:17:12.795Z,57.86
2023-05-05T00:19:40.770Z,57.84
2023-05-05T00:22:08.389Z,57.91
2023-05-05T00:24:36.129Z,57.86
2023-05-05T00:27:04.176Z,58.22
2023-05-05T00:29:31.868Z,58.15
2023-05-05T00:31:59.599Z,58.23
2023-05-05T00:34:27.236Z,58.35
2023-05-05T00:36:54.878Z,58.41
2023-05-05T00:39:22.527Z,58.63
2023-05-05T00:41:50.772Z,58.70
2023-05-05T00:44:18.474Z,58.84
2023-05-05T00:46:46.220Z,58.82
2023-05-05T00:49:13.975Z,59.10
2023-05-05T00:51:41.622Z,59.15
2023-05-05T00:54:09.238Z,59.17
2023-05-05T00:56:36.873Z,59.09
2023-05-05T00:59:04.511Z,59.02
2023-05-05T01:01:32.822Z,59.08
2023-05-05T01:04:00.494Z,59.07
2023-05-05T01:06:28.133Z,59.14
2023-05-05T01:08:56.491Z,59.41
2023-05-05T01:11:24.127Z,59.47
2023-05-05T01:13:51.734Z,59.64
2023-05-05T01:16:19.356Z,59.87
2023-05-05T01:18:47.043Z,59.83
2023-05-05T01:21:14.768Z,59.96
2023-05-05T01:23:42.522Z,60.28
2023-05-05T01:26:10.208Z,60.16
2023-05-05T01:28:37.842Z,60.33
2023-05-05T01:31:05.965Z,60.41
2023-05-05T01:33:33.579Z,60.51
2023-05-05T01:36:01.204Z,60.28
2023-05-05T01:38:29.434Z,60.54
2023-05-05T01:40:57.400Z,60.76
2023-05-05T01:43:25.055Z,60.67
2023-05-05T01:45:52.763Z,60.89
2023-05-05T01:48:20.358Z,61.01
2023-05-05T01:50:48.044Z,60.95
2023-05-05T01:53:17.667Z,61.03
2023-05-05T01:55:45.301Z,60.96
2023-05-05T01:58:13.597Z,60.98
2023-05-05T02:00:41.226Z,60.99
2023-05-05T02:03:08.961Z,61.18
2023-05-05T02:05:36.856Z,61.23
2023-05-05T02:08:04.517Z,61.34
2023-05-05T02:10:32.158Z,61.61
2023-05-05T02:12:59.856Z,61.53
2023-05-05T02:15:27.478Z,61.64
2023-05-05T02:17:55.144Z,61.69
2023-05-05T02:20:22.804Z,61.76
2023-05-05T02:22:50.414Z,61.97
2023-05-05T02:25:18.126Z,62.08
2023-05-05T02:27:45.822Z,62.08
2023-05-05T02:30:13.473Z,61.99
2023-05-05T02:32:41.202Z,62.15
2023-05-05T02:35:08.997Z,62.49
2023-05-05T02:37:36.633Z,62.62
2023-05-05T02:40:04.960Z,62.68
2023-05-05T02:42:32.775Z,62.59
2023-05-05T02:45:00.485Z,62.57
2023-05-05T02:47:28.149Z,62.46
2023-05-05T02:49:55.901Z,62.58
2023-05-05T02:52:23.548Z,62.51
2023-05-05T02:54:51.282Z,62.61
2023-05-05T02:57:18.891Z,62.76
2023-05-05T02:59:48.845Z,62.81
2023-05-05T03:02:16.448Z,62.82
2023-05-05T03:04:44.064Z,62.91
2023-05-05T03:07:12.030Z,63.21
2023-05-05T03:09:39.648Z,63.05
2023-05-05T03:12:07.325Z,62.95
2023-05-05T03:14:35.116Z,62.99
2023-05-05T03:17:02.759Z,63.36
2023-05-05T03:19:30.400Z,63.46
2023-05-05T03:21:58.308Z,63.60
2023-05-05T03:24:25.929Z,63.87
2023-05-05T03:26:53.913Z,64.35
2023-05-05T03:29:21.565Z,64.42
2023-05-05T03:31:49.245Z,64.61
2023-05-05T03:34:16.992Z,64.80
2023-05-05T03:36:44.624Z,64.71
2023-05-05T03:39:12.373Z,64.65
2023-05-05T03:41:39.987Z,64.68
2023-05-05T03:44:07.617Z,64.70
2023-05-05T03:46:36.139Z,64.74
2023-05-05T03:49:03.755Z,64.50
2023-05-05T03:51:31.791Z,64.82
2023-05-05T03:53:59.445Z,64.82
2023-05-05T03:56:27.060Z,64.99
2023-05-05T03:58:54.697Z,65.10
2023-05-05T04:01:23.446Z,65.20
2023-05-05T04:03:51.202Z,64.89
2023-05-05T04:06:18.992Z,65.08
2023-05-05T04:08:46.767Z,65.32
2023-05-05T04:11:14.409Z,65.22
2023-05-05T04:13:42.058Z,65.34
2023-05-05T04:16:09.698Z,65.57
2023-05-05T04:18:37.382Z,65.66
2023-05-05T04:21:04.995Z,65.34
2023-05-05T04:23:32.618Z,65.57
2023-05-05T04:26:00.236Z,65.78
2023-05-05T04:28:27.883Z,65.99
2023-05-05T04:30:55.635Z,66.03
2023-05-05T04:33:23.363Z,66.29
2023-05-05T04:35:51.012Z,66.16
2023-05-05T04:38:20.792Z,66.23
2023-05-05T04:40:48.477Z,66.43
2023-05-05T04:43:16.121Z,66.46
2023-05-05T04:45:43.749Z,66.52
2023-05-05T04:48:11.341Z,66.29
2023-05-05T04:50:38.939Z,66.47
2023-05-05T04:53:06.559Z,66.40
2023-05-05T04:55:34.169Z,66.22
2023-05-05T04:58:01.884Z,65.94
2023-05-05T05:00:29.517Z,65.82
2023-05-05T05:02:57.258Z,65.73
2023-05-05T05:05:24.951Z,65.83
2023-05-05T05:07:52.622Z,65.75
2023-05-05T05:10:20.240Z,65.88
2023-05-05T05:12:47.974Z,65.92
2023-05-05T05:15:15.981Z,66.01
2023-05-05T05:17:43.636Z,65.93
2023-05-05T05:20:11.456Z,65.95
2023-05-05T05:22:39.371Z,65.94
2023-05-05T05:25:07.017Z,65.81
2023-05-05T05:27:34.627Z,65.73
2023-05-05T05:30:03.363Z,65.83
2023-05-05T05:32:31.297Z,65.82
2023-05-05T05:34:58.914Z,65.97
2023-05-05T05:37:26.524Z,66.12
2023-05-05T05:39:54.171Z,66.03
2023-05-05T05:42:21.828Z,65.92
2023-05-05T05:44:49.470Z,65.73
2023-05-05T05:47:17.160Z,65.88
2023-05-05T05:49:44.804Z,65.55
2023-05-05T05:52:12.521Z,65.70
2023-05-05T05:54:40.148Z,65.90
2023-05-05T05:57:07.941Z,65.84
2023-05-05T05:59:35.683Z,65.76
2023-05-05T06:02:04.702Z,65.46
2023-05-05T06:04:32.415Z,65.37
2023-05-05T06:07:00.039Z,65.47
2023-05-05T06:09:27.686Z,65.61
2023-05-05T06:11:55.463Z,65.78
2023-05-05T06:14:23.139Z,66.21
2023-05-05T06:16:52.430Z,66.35
2023-05-05T06:19:20.102Z,66.27
2023-05-05T06:21:47.781Z,66.29
2023-05-05T06:24:15.420Z,66.18
2023-05-05T06:29:31.433Z,65.04
2023-05-05T06:32:01.215Z,64.76
2023-05-05T06:34:28.895Z,64.64
2023-05-05T06:36:56.504Z,64.75
2023-05-05T06:39:24.143Z,64.68
2023-05-05T06:41:52.082Z,64.70
2023-05-05T06:44:19.770Z,64.74
2023-05-05T06:46:47.526Z,64.29
2023-05-05T06:49:15.233Z,64.06
2023-05-05T06:51:43.092Z,64.51
2023-05-05T06:54:10.854Z,64.51
2023-05-05T06:56:38.517Z,64.41
2023-05-05T06:59:06.436Z,63.80
2023-05-05T07:01:34.061Z,63.64
2023-05-05T07:04:01.934Z,63.45
2023-05-05T07:06:29.636Z,63.42
2023-05-05T07:08:58.049Z,62.30
2023-05-05T07:11:25.827Z,61.72
2023-05-05T07:13:53.459Z,61.44
2023-05-05T07:16:21.189Z,61.30
2023-05-05T07:18:48.992Z,60.64
2023-05-05T07:21:16.860Z,60.48
2023-05-05T07:23:46.665Z,60.43
2023-05-05T07:26:14.443Z,60.30
2023-05-05T07:28:43.250Z,60.22
2023-05-05T07:31:10.944Z,60.23
2023-05-05T07:33:38.728Z,59.90
2023-05-05T07:36:06.739Z,59.38
2023-05-05T07:38:34.694Z,59.16
2023-05-05T07:41:02.311Z,59.19
2023-05-05T07:43:29.964Z,58.87
2023-05-05T07:45:57.607Z,59.04
2023-05-05T07:48:25.581Z,59.52
2023-05-05T07:50:53.229Z,59.30
2023-05-05T07:53:21.132Z,58.72
2023-05-05T07:55:48.796Z,58.45
2023-05-05T07:58:16.432Z,59.05
2023-05-05T08:00:44.051Z,59.29
2023-05-05T08:03:12.262Z,58.77
2023-05-05T08:05:40.846Z,58.89
2023-05-05T08:08:08.541Z,58.27
2023-05-05T08:10:36.109Z,57.75
2023-05-05T08:13:03.845Z,57.42
2023-05-05T08:15:31.475Z,57.07
2023-05-05T08:17:59.198Z,56.60
2023-05-05T08:20:26.884Z,56.66
2023-05-05T08:22:54.682Z,57.09
2023-05-05T08:25:22.395Z,57.19
2023-05-05T08:27:51.404Z,57.46
2023-05-05T08:30:21.582Z,57.22
2023-05-05T08:32:49.502Z,56.48
2023-05-05T08:35:17.245Z,55.26
2023-05-05T08:37:45.018Z,54.80
2023-05-05T08:40:14.384Z,54.83
2023-05-05T08:42:42.353Z,55.00
2023-05-05T08:45:10.650Z,54.55
2023-05-05T08:47:39.120Z,54.53
2023-05-05T08:50:06.972Z,54.56
2023-05-05T08:52:34.719Z,54.08
2023-05-05T08:55:02.715Z,54.40
2023-05-05T08:57:30.336Z,53.75
2023-05-05T08:59:58.988Z,53.53
2023-05-05T09:02:28.616Z,54.01
2023-05-05T09:04:56.334Z,53.56
2023-05-05T09:07:23.932Z,54.46
2023-05-05T09:09:51.590Z,54.75
2023-05-05T09:12:19.197Z,55.03
2023-05-05T09:17:36.223Z,53.89
2023-05-05T09:20:07.498Z,54.02
2023-05-05T09:22:35.193Z,53.39
2023-05-05T09:25:03.095Z,53.30
2023-05-05T09:27:30.765Z,53.88
2023-05-05T09:29:58.478Z,53.89
2023-05-05T09:32:27.631Z,53.14
2023-05-05T09:34:56.258Z,52.83
2023-05-05T09:37:23.878Z,52.39
2023-05-05T09:39:51.509Z,52.35
2023-05-05T09:42:19.713Z,52.70
2023-05-05T09:44:47.326Z,52.03
2023-05-05T09:47:28.479Z,50.97
2023-05-05T09:49:56.564Z,51.07
2023-05-05T09:52:24.181Z,51.21
2023-05-05T09:54:51.809Z,50.85
2023-05-05T09:57:19.461Z,50.92
2023-05-05T09:59:47.072Z,50.40
2023-05-05T10:02:14.696Z,49.75
2023-05-05T10:04:42.391Z,50.39
2023-05-05T10:07:10.075Z,49.40
2023-05-05T10:09:37.685Z,48.50
2023-05-05T10:12:05.737Z,48.69
2023-05-05T10:14:33.349Z,48.62
2023-05-05T10:17:01.013Z,48.70
2023-05-05T10:19:28.711Z,48.49
2023-05-05T10:21:56.356Z,48.35
2023-05-05T10:24:23.987Z,48.04
2023-05-05T10:26:53.997Z,48.17
2023-05-05T10:29:21.654Z,47.12
2023-05-05T10:31:49.370Z,46.79
2023-05-05T10:34:17.111Z,47.33
2023-05-05T10:36:45.195Z,47.80
2023-05-05T10:39:12.897Z,46.68
2023-05-05T10:41:41.015Z,47.05
2023-05-05T10:44:10.908Z,46.12
2023-05-05T10:46:38.663Z,46.91
2023-05-05T10:49:06.394Z,46.62
2023-05-05T10:51:39.882Z,46.19
2023-05-05T10:54:10.487Z,45.76
2023-05-05T10:56:38.270Z,46.17
2023-05-05T10:59:06.097Z,45.99
2023-05-05T11:01:33.982Z,46.37
2023-05-05T11:04:01.899Z,46.00
2023-05-05T11:06:30.883Z,45.44
2023-05-05T11:08:58.519Z,44.97
2023-05-05T11:11:26.150Z,44.92
2023-05-05T11:13:53.779Z,43.86
2023-05-05T11:16:21.442Z,43.47
2023-05-05T11:18:49.084Z,43.83
2023-05-05T11:21:16.831Z,43.79
2023-05-05T11:23:44.508Z,43.83
2023-05-05T11:26:13.172Z,42.85
2023-05-05T11:28:41.246Z,42.56
2023-05-05T11:31:08.859Z,42.92
2023-05-05T11:33:37.184Z,42.58
2023-05-05T11:36:06.755Z,42.89
2023-05-05T11:38:34.980Z,41.24
2023-05-05T11:41:02.594Z,40.37
2023-05-05T11:43:30.211Z,41.09
2023-05-05T11:45:57.896Z,41.31
2023-05-05T11:48:27.326Z,40.81
2023-05-05T11:50:55.075Z,41.11
2023-05-05T11:53:22.691Z,41.00
2023-05-05T11:55:50.335Z,40.12
2023-05-05T11:58:17.958Z,39.54
2023-05-05T12:00:45.773Z,40.06
2023-05-05T12:03:13.536Z,40.25
2023-05-05T12:05:41.342Z,40.28
2023-05-05T12:08:09.878Z,40.34
2023-05-05T12:10:37.949Z,40.08
2023-05-05T12:13:05.703Z,39.44
2023-05-05T12:15:33.396Z,37.98
2023-05-05T12:18:03.096Z,37.05
2023-05-05T12:20:32.489Z,37.52
2023-05-05T12:23:00.133Z,37.61
2023-05-05T12:25:27.781Z,38.34
2023-05-05T12:27:55.662Z,38.53
2023-05-05T12:30:23.457Z,38.81
2023-05-05T12:32:51.174Z,38.94
2023-05-05T12:35:19.996Z,37.67
2023-05-05T12:37:47.615Z,38.48
2023-05-05T12:40:15.248Z,38.61
2023-05-05T12:42:43.651Z,38.82
2023-05-05T12:45:12.813Z,37.89
2023-05-05T12:47:44.182Z,37.57
2023-05-05T12:50:11.883Z,37.25
2023-05-05T12:52:39.540Z,37.77
2023-05-05T12:55:07.410Z,37.48
2023-05-05T12:57:35.407Z,37.45
2023-05-05T13:00:03.780Z,37.41
2023-05-05T13:02:31.449Z,36.82
2023-05-05T13:04:59.218Z,36.22
2023-05-05T13:07:26.834Z,35.63
2023-05-05T13:09:54.469Z,35.33
2023-05-05T13:12:23.302Z,35.93
2023-05-05T13:14:52.642Z,36.95
2023-05-05T13:17:20.302Z,36.73
2023-05-05T13:19:47.953Z,36.31
2023-05-05T13:22:15.620Z,36.71
2023-05-05T13:24:51.913Z,35.99
2023-05-05T13:27:20.732Z,36.37
2023-05-05T13:29:48.689Z,36.04
2023-05-05T13:32:16.361Z,34.77
2023-05-05T13:34:44.373Z,34.31
2023-05-05T13:37:12.009Z,34.99
2023-05-05T13:39:39.667Z,34.48
2023-05-05T13:42:07.339Z,34.84
2023-05-05T13:44:35.879Z,35.70
2023-05-05T13:47:03.856Z,35.29
2023-05-05T13:49:31.568Z,35.69
2023-05-05T13:51:59.529Z,35.70
2023-05-05T13:54:27.182Z,35.78
2023-05-05T13:56:54.820Z,35.16
2023-05-05T13:59:22.471Z,34.89
2023-05-05T14:01:50.142Z,34.55
2023-05-05T14:04:17.822Z,34.81
2023-05-05T14:06:45.612Z,34.75
2023-05-05T14:09:13.705Z,34.27
2023-05-05T14:11:41.404Z,34.77
2023-05-05T14:14:09.030Z,34.62
2023-05-05T14:16:36.715Z,34.82
2023-05-05T14:19:04.378Z,34.46
2023-05-05T14:21:32.812Z,33.93
2023-05-05T14:24:00.523Z,33.92
2023-05-05T14:26:28.188Z,33.95
2023-05-05T14:28:55.942Z,34.05
2023-05-05T14:31:23.663Z,34.39
2023-05-05T14:33:51.302Z,34.36
2023-05-05T14:36:18.987Z,34.41
2023-05-05T14:38:46.709Z,34.26
2023-05-05T14:41:14.374Z,34.25
2023-05-05T14:43:42.099Z,34.19
2023-05-05T14:46:09.743Z,34.64
2023-05-05T14:48:37.797Z,34.23
2023-05-05T14:51:05.461Z,34.39
2023-05-05T14:53:33.157Z,34.67
2023-05-05T14:56:00.811Z,34.67
2023-05-05T14:58:28.469Z,34.67
2023-05-05T15:00:56.148Z,34.86
2023-05-05T15:03:23.864Z,34.44
2023-05-05T15:05:51.533Z,34.78
2023-05-05T15:08:19.407Z,34.72
2023-05-05T15:10:47.117Z,34.61
2023-05-05T15:13:15.030Z,35.05
2023-05-05T15:15:43.084Z,34.66
2023-05-05T15:18:10.739Z,34.86
2023-05-05T15:20:38.366Z,34.71
2023-05-05T15:23:06.016Z,34.73
2023-05-05T15:25:33.665Z,34.78
2023-05-05T15:28:01.317Z,34.85
2023-05-05T15:30:28.958Z,34.83
2023-05-05T15:32:56.693Z,34.66
2023-05-05T15:35:25.711Z,34.75
2023-05-05T15:37:53.329Z,34.85
2023-05-05T15:40:20.954Z,35.24
2023-05-05T15:42:49.965Z,35.34
2023-05-05T15:45:17.630Z,35.24
2023-05-05T15:47:46.233Z,35.19
2023-05-05T15:50:14.303Z,34.85
2023-05-05T15:52:42.007Z,34.80
2023-05-05T15:55:09.751Z,34.89
2023-05-05T15:57:39.913Z,34.94
2023-05-05T16:00:08.098Z,34.88
2023-05-05T16:02:38.385Z,34.80
2023-05-05T16:05:06.414Z,34.67
2023-05-05T16:07:34.253Z,34.45
2023-05-05T16:10:01.973Z,34.35
2023-05-05T16:12:29.712Z,34.35
2023-05-05T16:14:57.472Z,33.99
2023-05-05T16:17:25.186Z,33.96
2023-05-05T16:19:52.901Z,34.00
2023-05-05T16:22:21.239Z,33.84
2023-05-05T16:24:48.928Z,33.63
2023-05-05T16:27:16.616Z,33.84
2023-05-05T16:29:44.305Z,34.09
2023-05-05T16:32:11.941Z,34.13
2023-05-05T16:34:39.649Z,34.19
2023-05-05T16:37:07.267Z,33.90
2023-05-05T16:39:40.261Z,33.70
2023-05-05T16:42:08.156Z,34.02
2023-05-05T16:44:36.057Z,34.51
2023-05-05T16:47:03.754Z,34.15
2023-05-05T16:49:31.382Z,34.14
2023-05-05T16:51:59.154Z,34.44
2023-05-05T16:54:26.775Z,34.28
2023-05-05T16:56:55.068Z,34.59
2023-05-05T16:59:22.712Z,34.86
2023-05-05T17:01:50.387Z,35.16
2023-05-05T17:04:18.061Z,35.40
2023-05-05T17:06:46.170Z,36.16
2023-05-05T17:09:13.787Z,36.63
2023-05-05T17:11:42.023Z,36.91
2023-05-05T17:14:09.938Z,36.92
2023-05-05T17:16:37.885Z,36.95
2023-05-05T17:19:05.630Z,37.04
2023-05-05T17:21:33.240Z,37.17
2023-05-05T17:24:01.594Z,37.50
2023-05-05T17:26:29.201Z,37.91
2023-05-05T17:28:56.826Z,38.29
2023-05-05T17:31:24.503Z,38.67
2023-05-05T17:33:52.164Z,38.76
2023-05-05T17:36:19.783Z,38.69
2023-05-05T17:38:47.386Z,38.85
2023-05-05T17:41:15.056Z,39.17
2023-05-05T17:43:42.741Z,39.50
2023-05-05T17:46:10.475Z,39.65
2023-05-05T17:48:38.256Z,39.77
2023-05-05T17:51:05.924Z,40.14
2023-05-05T17:53:33.688Z,40.39
2023-05-05T17:56:01.345Z,40.69
2023-05-05T17:58:28.947Z,40.91
2023-05-05T18:00:56.696Z,41.37
2023-05-05T18:03:24.667Z,41.72
2023-05-05T18:05:53.052Z,41.75
2023-05-05T18:08:20.749Z,42.31
2023-05-05T18:10:48.416Z,42.61
2023-05-05T18:13:16.058Z,42.72
2023-05-05T18:15:43.744Z,42.83
2023-05-05T18:18:11.452Z,43.11
2023-05-05T18:20:39.152Z,43.52
2023-05-05T18:23:06.811Z,43.54
2023-05-05T18:25:34.436Z,43.68
2023-05-05T18:28:02.049Z,43.83
2023-05-05T18:30:29.672Z,44.11
2023-05-05T18:32:57.386Z,44.15
2023-05-05T18:35:24.988Z,43.96
2023-05-05T18:37:54.569Z,44.11
2023-05-05T18:40:22.221Z,44.33
2023-05-05T18:42:49.924Z,44.67
2023-05-05T18:45:17.624Z,45.02
2023-05-05T18:47:45.383Z,45.27
2023-05-05T18:50:13.044Z,45.07
2023-05-05T18:52:40.694Z,44.97
2023-05-05T18:55:08.509Z,45.63
2023-05-05T18:57:36.357Z,45.59
2023-05-05T19:00:03.988Z,45.85
2023-05-05T19:02:31.895Z,46.17
2023-05-05T19:04:59.650Z,46.53
2023-05-05T19:07:35.447Z,46.66
2023-05-05T19:10:03.668Z,46.93
2023-05-05T19:12:31.329Z,46.72
2023-05-05T19:14:59.094Z,47.08
2023-05-05T19:17:26.741Z,47.36
2023-05-05T19:19:54.413Z,47.94
2023-05-05T19:22:24.213Z,48.06
2023-05-05T19:24:51.851Z,48.05
2023-05-05T19:27:19.470Z,48.11
2023-05-05T19:29:52.238Z,47.91
2023-05-05T19:32:20.664Z,48.60
2023-05-05T19:34:48.796Z,48.81
2023-05-05T19:37:16.470Z,48.44
2023-05-05T19:39:45.858Z,48.51
2023-05-05T19:42:13.573Z,48.71
2023-05-05T19:44:41.215Z,48.50
2023-05-05T19:47:09.066Z,48.48
2023-05-05T19:49:38.584Z,48.54
2023-05-05T19:52:06.295Z,48.75
2023-05-05T19:54:33.933Z,48.70
2023-05-05T19:57:03.690Z,48.70
2023-05-05T19:59:31.441Z,48.78
2023-05-05T20:01:59.489Z,48.78
2023-05-05T20:04:27.324Z,48.87
2023-05-05T20:06:55.011Z,49.21
2023-05-05T20:09:22.651Z,49.27
2023-05-05T20:11:50.221Z,49.18
2023-05-05T20:14:17.886Z,49.26
2023-05-05T20:16:45.508Z,49.41
2023-05-05T20:19:13.250Z,49.58
2023-05-05T20:21:41.323Z,49.60
2023-05-05T20:24:09.063Z,49.66
2023-05-05T20:26:36.812Z,49.75
2023-05-05T20:29:04.449Z,49.75
2023-05-05T20:31:32.098Z,49.96
2023-05-05T20:33:59.822Z,50.13
2023-05-05T20:36:27.785Z,50.25
2023-05-05T20:38:55.480Z,50.18
2023-05-05T20:41:23.094Z,50.14
2023-05-05T20:43:50.905Z,50.33
2023-05-05T20:46:18.586Z,50.37
2023-05-05T20:48:46.510Z,50.44
2023-05-05T20:51:14.148Z,50.66
2023-05-05T20:53:41.828Z,50.63
2023-05-05T20:56:09.497Z,51.03
2023-05-05T20:58:37.106Z,50.97
2023-05-05T21:01:04.781Z,50.95
2023-05-05T21:03:32.503Z,51.10
2023-05-05T21:06:00.298Z,51.19
2023-05-05T21:08:28.005Z,51.15
2023-05-05T21:10:55.644Z,51.35
2023-05-05T21:13:23.351Z,51.29
2023-05-05T21:15:51.011Z,51.29
2023-05-05T21:18:18.628Z,51.56
2023-05-05T21:20:46.260Z,51.68
2023-05-05T21:23:13.910Z,51.44
2023-05-05T21:25:41.561Z,51.59
2023-05-05T21:28:09.171Z,51.72
2023-05-05T21:30:38.170Z,51.75
2023-05-05T21:33:05.928Z,51.89
2023-05-05T21:35:34.080Z,51.95
2023-05-05T21:38:02.308Z,51.85
2023-05-05T21:40:29.967Z,51.92
2023-05-05T21:42:57.612Z,52.05
2023-05-05T21:45:25.252Z,52.23
2023-05-05T21:47:52.996Z,52.14
2023-05-05T21:50:20.739Z,52.34
2023-05-05T21:52:48.354Z,52.36
2023-05-05T21:55:15.978Z,52.37
2023-05-05T21:57:43.582Z,52.45
2023-05-05T22:00:16.769Z,52.48
2023-05-05T22:02:44.712Z,52.44
2023-05-05T22:05:12.470Z,52.42
2023-05-05T22:07:40.898Z,52.50
2023-05-05T22:10:08.758Z,52.51
2023-05-05T22:12:36.533Z,52.58
2023-05-05T22:15:04.186Z,52.60
2023-05-05T22:17:31.868Z,52.59
2023-05-05T22:19:59.537Z,52.87
2023-05-05T22:22:27.162Z,52.84
2023-05-05T22:24:54.762Z,53.12
2023-05-05T22:27:22.459Z,52.99
2023-05-05T22:29:50.062Z,53.04
2023-05-05T22:32:17.668Z,53.31
2023-05-05T22:34:45.277Z,53.37
2023-05-05T22:37:12.993Z,53.34
2023-05-05T22:39:40.609Z,53.55
2023-05-05T22:42:08.351Z,53.71
2023-05-05T22:44:36.002Z,53.79
2023-05-05T22:47:03.734Z,53.79
2023-05-05T22:49:31.817Z,53.76
2023-05-05T22:51:59.635Z,54.01
2023-05-05T22:54:27.268Z,53.95
2023-05-05T22:56:55.161Z,54.29
2023-05-05T22:59:22.815Z,53.92
2023-05-05T23:01:50.449Z,54.20
2023-05-05T23:04:18.118Z,54.30
2023-05-05T23:06:46.317Z,54.44
2023-05-05T23:09:13.984Z,54.55
2023-05-05T23:11:41.602Z,54.41
2023-05-05T23:14:09.250Z,54.28
2023-05-05T23:16:36.888Z,54.54
2023-05-05T23:19:04.558Z,54.74
2023-05-05T23:21:34.052Z,54.78
2023-05-05T23:24:06.729Z,54.79
2023-05-05T23:26:34.792Z,55.15
2023-05-05T23:29:02.424Z,55.17
2023-05-05T23:31:30.039Z,55.25
2023-05-05T23:33:57.651Z,55.40
2023-05-05T23:36:25.274Z,55.38
2023-05-05T23:38:52.899Z,55.59
2023-05-05T23:41:20.561Z,55.57
2023-05-05T23:43:48.157Z,55.57
2023-05-05T23:46:15.859Z,55.82
2023-05-05T23:48:43.505Z,55.81
2023-05-05T23:51:11.240Z,56.05
2023-05-05T23:53:38.869Z,56.06
2023-05-05T23:56:06.500Z,56.25
2023-05-05T23:58:34.146Z,56.19
